createdAt,value
2017-07-09T00:00:38.968Z,17.47
2017-07-09T00:01:49.487Z,17.54
2017-07-09T00:02:59.755Z,17.5
2017-07-09T00:04:10.024Z,17.56
2017-07-09T00:05:20.312Z,17.52
2017-07-09T00:06:29.948Z,17.47
2017-07-09T00:07:40.148Z,17.46
2017-07-09T00:08:50.094Z,17.49
2017-07-09T00:09:59.782Z,17.44
2017-07-09T00:11:09.746Z,17.52
2017-07-09T00:12:20.015Z,17.34
2017-07-09T00:13:30.216Z,17.41
2017-07-09T00:14:40.486Z,17.41
2017-07-09T00:15:50.437Z,17.39
2017-07-09T00:17:00.071Z,17.42
2017-07-09T00:18:10.022Z,17.38
2017-07-09T00:19:20.549Z,17.38
2017-07-09T00:20:30.834Z,17.38
2017-07-09T00:21:41.104Z,17.42
2017-07-09T00:22:51.385Z,17.39
2017-07-09T00:24:01.650Z,17.38
2017-07-09T00:25:12.228Z,17.37
2017-07-09T00:26:21.866Z,17.3
2017-07-09T00:27:31.808Z,17.34
2017-07-09T00:28:42.061Z,17.28
2017-07-09T00:29:52.350Z,17.3
2017-07-09T00:31:02.561Z,17.3
2017-07-09T00:32:12.827Z,17.3
2017-07-09T00:33:23.092Z,17.28
2017-07-09T00:34:33.370Z,17.3
2017-07-09T00:35:43.627Z,17.27
2017-07-09T00:36:54.162Z,17.23
2017-07-09T00:38:04.131Z,17.19
2017-07-09T00:39:14.076Z,17.2
2017-07-09T00:40:24.035Z,17.2
2017-07-09T00:41:34.314Z,17.1
2017-07-09T00:42:44.517Z,17.1
2017-07-09T00:43:54.821Z,17.12
2017-07-09T00:45:05.116Z,17.13
2017-07-09T00:46:15.388Z,17.14
2017-07-09T00:47:25.654Z,17.02
2017-07-09T00:48:36.160Z,17.12
2017-07-09T00:49:46.111Z,17.12
2017-07-09T00:50:56.095Z,17.09
2017-07-09T00:52:06.380Z,17.04
2017-07-09T00:53:16.652Z,17.1
2017-07-09T00:54:26.868Z,17.1
2017-07-09T00:55:37.136Z,17.07
2017-07-09T00:56:47.407Z,17.07
2017-07-09T00:57:57.377Z,17.05
2017-07-09T00:59:07.639Z,17.02
2017-07-09T01:00:17.853Z,17.12
2017-07-09T01:01:27.496Z,17.13
2017-07-09T01:02:37.776Z,17.12
2017-07-09T01:03:47.728Z,17.12
2017-07-09T01:04:57.997Z,16.99
2017-07-09T01:06:08.196Z,17.05
2017-07-09T01:07:18.451Z,17.07
2017-07-09T01:08:28.724Z,17.09
2017-07-09T01:09:39.003Z,16.97
2017-07-09T01:10:49.275Z,16.98
2017-07-09T01:11:59.795Z,16.98
2017-07-09T01:13:10.054Z,16.99
2017-07-09T01:14:20.323Z,16.98
2017-07-09T01:15:30.599Z,16.97
2017-07-09T01:16:40.878Z,16.99
2017-07-09T01:17:51.401Z,16.97
2017-07-09T01:19:01.348Z,16.94
2017-07-09T01:20:11.628Z,16.94
2017-07-09T01:21:21.901Z,16.98
2017-07-09T01:22:32.173Z,16.97
2017-07-09T01:23:42.741Z,16.83
2017-07-09T01:24:53.001Z,16.89
2017-07-09T01:26:03.267Z,16.84
2017-07-09T01:27:13.523Z,16.84
2017-07-09T01:28:23.469Z,16.82
2017-07-09T01:29:33.718Z,16.94
2017-07-09T01:30:44.003Z,16.83
2017-07-09T01:31:53.966Z,16.92
2017-07-09T01:33:04.221Z,16.95
2017-07-09T01:34:14.161Z,16.94
2017-07-09T01:35:24.356Z,16.89
2017-07-09T01:36:33.981Z,16.84
2017-07-09T01:37:44.258Z,16.79
2017-07-09T01:38:54.542Z,16.82
2017-07-09T01:40:04.507Z,16.89
2017-07-09T01:41:14.717Z,16.86
2017-07-09T01:42:24.665Z,16.84
2017-07-09T01:43:34.943Z,16.79
2017-07-09T01:44:45.213Z,16.79
2017-07-09T01:45:55.491Z,16.76
2017-07-09T01:47:06.011Z,16.66
2017-07-09T01:48:15.966Z,16.72
2017-07-09T01:49:26.248Z,16.73
2017-07-09T01:50:36.514Z,16.64
2017-07-09T01:51:46.795Z,16.66
2017-07-09T01:52:56.702Z,16.61
2017-07-09T01:54:06.969Z,16.66
2017-07-09T01:55:17.252Z,16.61
2017-07-09T01:56:27.196Z,16.59
2017-07-09T01:57:37.477Z,16.62
2017-07-09T01:58:48.008Z,16.62
2017-07-09T01:59:57.966Z,16.57
2017-07-09T02:01:08.229Z,16.57
2017-07-09T02:02:18.177Z,16.55
2017-07-09T02:03:27.815Z,16.59
2017-07-09T02:04:38.355Z,16.59
2017-07-09T02:05:48.637Z,16.5
2017-07-09T02:06:58.589Z,16.47
2017-07-09T02:08:08.864Z,16.5
2017-07-09T02:09:19.148Z,16.43
2017-07-09T02:10:29.678Z,16.43
2017-07-09T02:11:39.952Z,16.49
2017-07-09T02:12:50.224Z,16.47
2017-07-09T02:14:00.489Z,16.4
2017-07-09T02:15:10.753Z,16.44
2017-07-09T02:16:21.272Z,16.44
2017-07-09T02:17:31.537Z,16.46
2017-07-09T02:18:41.819Z,16.46
2017-07-09T02:19:52.083Z,16.43
2017-07-09T02:21:02.381Z,16.4
2017-07-09T02:22:12.316Z,16.43
2017-07-09T02:23:22.575Z,16.39
2017-07-09T02:24:32.848Z,16.44
2017-07-09T02:25:42.798Z,16.4
2017-07-09T02:26:53.066Z,16.44
2017-07-09T02:28:03.645Z,16.39
2017-07-09T02:29:13.985Z,16.46
2017-07-09T02:30:23.960Z,16.4
2017-07-09T02:31:33.898Z,16.43
2017-07-09T02:32:43.841Z,16.44
2017-07-09T02:33:54.052Z,16.4
2017-07-09T02:35:04.324Z,16.37
2017-07-09T02:36:14.255Z,16.34
2017-07-09T02:37:24.221Z,16.36
2017-07-09T02:38:34.485Z,16.31
2017-07-09T02:39:44.369Z,16.31
2017-07-09T02:40:54.664Z,16.31
2017-07-09T02:42:04.622Z,16.25
2017-07-09T02:43:14.581Z,16.22
2017-07-09T02:44:24.539Z,16.24
2017-07-09T02:45:35.061Z,16.22
2017-07-09T02:46:45.377Z,16.13
2017-07-09T02:47:55.642Z,16.21
2017-07-09T02:49:05.901Z,16.26
2017-07-09T02:50:15.859Z,16.25
2017-07-09T02:51:26.363Z,16.22
2017-07-09T02:52:36.656Z,16.05
2017-07-09T02:53:46.929Z,16.1
2017-07-09T02:54:57.198Z,16.1
2017-07-09T02:56:07.144Z,16.13
2017-07-09T02:57:17.669Z,16.13
2017-07-09T02:58:27.940Z,16.1
2017-07-09T02:59:38.182Z,16.06
2017-07-09T03:00:48.431Z,16.06
2017-07-09T03:01:58.704Z,16.13
2017-07-09T03:03:09.228Z,16.06
2017-07-09T03:04:19.525Z,16.1
2017-07-09T03:05:29.814Z,16.09
2017-07-09T03:06:40.100Z,16.1
2017-07-09T03:07:49.423Z,16.12
2017-07-09T03:08:59.304Z,16.02
2017-07-09T03:10:09.257Z,16.06
2017-07-09T03:11:19.517Z,16.12
2017-07-09T03:12:29.781Z,16.1
2017-07-09T03:13:40.053Z,16.13
2017-07-09T03:14:50.568Z,16.12
2017-07-09T03:16:00.517Z,16.16
2017-07-09T03:17:10.834Z,16.09
2017-07-09T03:18:20.787Z,16.24
2017-07-09T03:19:30.742Z,16.12
2017-07-09T03:20:41.270Z,16.26
2017-07-09T03:21:51.545Z,16.03
2017-07-09T03:23:01.815Z,16.17
2017-07-09T03:24:12.077Z,16.08
2017-07-09T03:25:22.031Z,16.09
2017-07-09T03:26:32.567Z,16.06
2017-07-09T03:27:42.837Z,16.12
2017-07-09T03:28:52.787Z,16.06
2017-07-09T03:30:03.065Z,15.99
2017-07-09T03:31:13.006Z,16.03
2017-07-09T03:32:23.198Z,16.06
2017-07-09T03:33:33.487Z,16
2017-07-09T03:34:43.749Z,15.94
2017-07-09T03:35:54.028Z,15.87
2017-07-09T03:37:03.993Z,15.99
2017-07-09T03:38:14.518Z,15.92
2017-07-09T03:39:24.783Z,15.92
2017-07-09T03:40:34.749Z,15.94
2017-07-09T03:41:44.719Z,15.92
2017-07-09T03:42:54.987Z,15.96
2017-07-09T03:44:05.559Z,15.91
2017-07-09T03:45:15.819Z,15.91
2017-07-09T03:46:25.754Z,15.98
2017-07-09T03:47:35.729Z,16.03
2017-07-09T03:48:45.361Z,16.09
2017-07-09T03:49:55.876Z,15.92
2017-07-09T03:51:06.136Z,15.91
2017-07-09T03:52:16.096Z,16.09
2017-07-09T03:53:26.355Z,16
2017-07-09T03:54:36.297Z,15.94
2017-07-09T03:55:46.878Z,16.02
2017-07-09T03:56:57.164Z,16
2017-07-09T03:58:06.810Z,15.96
2017-07-09T03:59:17.078Z,15.94
2017-07-09T04:00:27.370Z,15.99
2017-07-09T04:01:37.884Z,15.98
2017-07-09T04:02:48.153Z,16.05
2017-07-09T04:03:58.098Z,15.91
2017-07-09T04:05:08.053Z,15.99
2017-07-09T04:06:18.315Z,15.88
2017-07-09T04:07:28.830Z,15.98
2017-07-09T04:08:39.083Z,15.92
2017-07-09T04:09:49.046Z,15.96
2017-07-09T04:10:59.326Z,15.91
2017-07-09T04:12:09.604Z,16
2017-07-09T04:13:20.136Z,16
2017-07-09T04:14:30.402Z,15.92
2017-07-09T04:15:40.677Z,16.06
2017-07-09T04:16:50.956Z,16
2017-07-09T04:18:00.902Z,16.05
2017-07-09T04:19:11.127Z,16.02
2017-07-09T04:20:21.390Z,16.05
2017-07-09T04:21:31.660Z,16.03
2017-07-09T04:22:41.922Z,16.06
2017-07-09T04:23:51.539Z,16.06
2017-07-09T04:25:02.044Z,16.12
2017-07-09T04:26:12.310Z,16.22
2017-07-09T04:27:22.576Z,16.18
2017-07-09T04:28:32.532Z,16.31
2017-07-09T04:29:42.813Z,16.31
2017-07-09T04:30:53.017Z,16.28
2017-07-09T04:32:03.310Z,16.28
2017-07-09T04:33:13.567Z,16.36
2017-07-09T04:34:23.213Z,16.29
2017-07-09T04:35:32.845Z,16.34
2017-07-09T04:36:43.369Z,16.34
2017-07-09T04:37:53.635Z,16.36
2017-07-09T04:39:03.590Z,16.39
2017-07-09T04:40:13.541Z,16.39
2017-07-09T04:41:23.803Z,16.41
2017-07-09T04:42:34.321Z,16.4
2017-07-09T04:43:44.273Z,16.46
2017-07-09T04:44:54.223Z,16.46
2017-07-09T04:46:04.178Z,16.41
2017-07-09T04:47:14.440Z,16.49
2017-07-09T04:48:24.631Z,16.44
2017-07-09T04:49:34.905Z,16.49
2017-07-09T04:50:45.195Z,16.51
2017-07-09T04:51:55.448Z,16.54
2017-07-09T04:53:05.083Z,16.64
2017-07-09T04:54:15.271Z,16.65
2017-07-09T04:55:25.544Z,16.58
2017-07-09T04:56:35.808Z,16.59
2017-07-09T04:57:46.090Z,16.65
2017-07-09T04:58:56.366Z,16.74
2017-07-09T05:00:06.918Z,16.72
2017-07-09T05:01:17.182Z,16.83
2017-07-09T05:02:27.446Z,16.82
2017-07-09T05:03:37.394Z,16.84
2017-07-09T05:04:47.664Z,16.83
2017-07-09T05:05:58.238Z,16.83
2017-07-09T05:07:08.495Z,16.79
2017-07-09T05:08:18.443Z,16.8
2017-07-09T05:09:28.399Z,16.79
2017-07-09T05:10:38.663Z,16.82
2017-07-09T05:11:49.204Z,16.79
2017-07-09T05:12:59.492Z,16.69
2017-07-09T05:14:09.758Z,16.8
2017-07-09T05:15:20.040Z,16.8
2017-07-09T05:16:30.320Z,16.84
2017-07-09T05:17:40.539Z,16.87
2017-07-09T05:18:50.179Z,16.79
2017-07-09T05:20:00.453Z,16.84
2017-07-09T05:21:10.821Z,16.99
2017-07-09T05:22:21.105Z,16.99
2017-07-09T05:23:31.624Z,16.97
2017-07-09T05:24:41.562Z,16.97
2017-07-09T05:25:51.834Z,17.07
2017-07-09T05:27:02.105Z,17.1
2017-07-09T05:28:12.061Z,17.12
2017-07-09T05:29:22.588Z,17.05
2017-07-09T05:30:32.851Z,17.14
2017-07-09T05:31:43.132Z,17.05
2017-07-09T05:32:53.408Z,17.13
2017-07-09T05:34:03.368Z,17.07
2017-07-09T05:35:13.906Z,17.16
2017-07-09T05:36:23.865Z,17.16
2017-07-09T05:37:34.129Z,17.24
2017-07-09T05:38:44.386Z,17.2
2017-07-09T05:39:54.658Z,17.28
2017-07-09T05:41:05.170Z,17.23
2017-07-09T05:42:15.433Z,17.3
2017-07-09T05:43:25.702Z,17.3
2017-07-09T05:44:35.633Z,17.32
2017-07-09T05:45:45.266Z,17.23
2017-07-09T05:46:55.776Z,17.2
2017-07-09T05:48:06.038Z,17.22
2017-07-09T05:49:16.005Z,17.16
2017-07-09T05:50:26.307Z,17.17
2017-07-09T05:51:36.253Z,17.19
2017-07-09T05:52:46.466Z,17.22
2017-07-09T05:53:56.422Z,17.3
2017-07-09T05:55:06.690Z,17.35
2017-07-09T05:56:16.651Z,17.42
2017-07-09T05:57:26.915Z,17.47
2017-07-09T05:58:37.496Z,17.41
2017-07-09T05:59:47.769Z,17.52
2017-07-09T06:00:58.033Z,17.52
2017-07-09T06:02:07.985Z,17.71
2017-07-09T06:03:17.943Z,17.68
2017-07-09T06:04:28.456Z,17.73
2017-07-09T06:05:38.727Z,17.76
2017-07-09T06:06:48.990Z,17.75
2017-07-09T06:07:59.262Z,17.78
2017-07-09T06:09:09.526Z,17.87
2017-07-09T06:10:19.733Z,17.91
2017-07-09T06:11:29.681Z,17.9
2017-07-09T06:12:39.975Z,17.9
2017-07-09T06:13:50.252Z,17.91
2017-07-09T06:15:00.509Z,17.88
2017-07-09T06:16:10.717Z,17.97
2017-07-09T06:17:21.006Z,17.95
2017-07-09T06:18:31.268Z,17.88
2017-07-09T06:19:41.231Z,17.84
2017-07-09T06:20:50.873Z,17.86
2017-07-09T06:22:01.437Z,17.94
2017-07-09T06:23:11.389Z,18
2017-07-09T06:24:21.655Z,17.95
2017-07-09T06:25:31.620Z,18.09
2017-07-09T06:26:41.891Z,18.05
2017-07-09T06:27:52.409Z,18.15
2017-07-09T06:29:02.669Z,18.24
2017-07-09T06:30:12.946Z,18.23
2017-07-09T06:31:22.603Z,18.31
2017-07-09T06:32:32.548Z,18.39
2017-07-09T06:33:42.437Z,18.41
2017-07-09T06:34:52.697Z,18.45
2017-07-09T06:36:02.658Z,18.45
2017-07-09T06:37:12.588Z,18.51
2017-07-09T06:38:22.539Z,18.45
2017-07-09T06:39:33.122Z,18.48
2017-07-09T06:40:43.380Z,18.58
2017-07-09T06:41:53.653Z,18.73
2017-07-09T06:43:03.924Z,18.79
2017-07-09T06:44:13.562Z,18.88
2017-07-09T06:45:24.096Z,18.86
2017-07-09T06:46:34.384Z,18.89
2017-07-09T06:47:44.656Z,19.08
2017-07-09T06:48:54.934Z,19.15
2017-07-09T06:50:05.216Z,19.19
2017-07-09T06:51:15.806Z,19.16
2017-07-09T06:52:25.762Z,19.2
2017-07-09T06:53:36.030Z,19.27
2017-07-09T06:54:46.307Z,19.37
2017-07-09T06:55:56.644Z,19.37
2017-07-09T06:57:07.164Z,19.41
2017-07-09T06:58:17.438Z,19.57
2017-07-09T06:59:27.703Z,19.6
2017-07-09T07:00:37.984Z,19.62
2017-07-09T07:01:48.250Z,19.62
2017-07-09T07:02:58.784Z,19.48
2017-07-09T07:04:09.067Z,19.59
2017-07-09T07:05:19.020Z,19.57
2017-07-09T07:06:28.664Z,19.62
2017-07-09T07:07:38.947Z,19.56
2017-07-09T07:08:49.473Z,19.6
2017-07-09T07:09:59.414Z,19.59
2017-07-09T07:11:09.384Z,19.44
2017-07-09T07:12:19.655Z,19.48
2017-07-09T07:13:29.605Z,19.24
2017-07-09T07:14:40.134Z,19.26
2017-07-09T07:15:50.089Z,19.17
2017-07-09T07:17:00.345Z,19.29
2017-07-09T07:18:10.628Z,19.35
2017-07-09T07:19:20.901Z,19.49
2017-07-09T07:20:31.158Z,19.55
2017-07-09T07:21:41.151Z,19.7
2017-07-09T07:22:51.101Z,19.75
2017-07-09T07:24:01.374Z,19.94
2017-07-09T07:25:11.335Z,20.02
2017-07-09T07:26:21.877Z,20.12
2017-07-09T07:27:32.147Z,20.03
2017-07-09T07:28:42.450Z,20.17
2017-07-09T07:29:52.718Z,20.02
2017-07-09T07:31:02.997Z,20.1
2017-07-09T07:32:13.539Z,20.12
2017-07-09T07:33:23.836Z,19.97
2017-07-09T07:34:33.802Z,19.96
2017-07-09T07:35:44.080Z,19.89
2017-07-09T07:36:53.728Z,19.97
2017-07-09T07:38:04.273Z,19.97
2017-07-09T07:39:14.553Z,20.17
2017-07-09T07:40:24.844Z,20.14
2017-07-09T07:41:35.116Z,20.14
2017-07-09T07:42:45.389Z,20.11
2017-07-09T07:43:55.693Z,20.1
2017-07-09T07:45:05.946Z,20.1
2017-07-09T07:46:15.914Z,20.07
2017-07-09T07:47:26.197Z,20.07
2017-07-09T07:48:36.453Z,20.17
2017-07-09T07:49:46.971Z,20.12
2017-07-09T07:50:57.257Z,20.04
2017-07-09T07:52:07.226Z,20.12
2017-07-09T07:53:17.489Z,20.18
2017-07-09T07:54:27.758Z,20.19
2017-07-09T07:55:38.336Z,20.42
2017-07-09T07:56:48.613Z,20.46
2017-07-09T07:57:58.880Z,20.44
2017-07-09T07:59:08.508Z,20.5
2017-07-09T08:00:18.781Z,20.56
2017-07-09T08:01:29.298Z,20.53
2017-07-09T08:02:39.274Z,20.63
2017-07-09T08:03:49.547Z,20.68
2017-07-09T08:04:59.817Z,20.64
2017-07-09T08:06:09.466Z,20.56
2017-07-09T08:07:19.978Z,20.6
2017-07-09T08:08:29.923Z,20.73
2017-07-09T08:09:40.210Z,20.75
2017-07-09T08:10:50.182Z,20.83
2017-07-09T08:12:00.454Z,20.89
2017-07-09T08:13:10.972Z,20.83
2017-07-09T08:14:21.250Z,20.86
2017-07-09T08:15:31.514Z,20.77
2017-07-09T08:16:41.787Z,20.66
2017-07-09T08:17:52.107Z,20.7
2017-07-09T08:19:02.354Z,20.66
2017-07-09T08:20:12.311Z,20.82
2017-07-09T08:21:22.605Z,20.85
2017-07-09T08:22:32.887Z,20.85
2017-07-09T08:23:43.164Z,20.77
2017-07-09T08:24:53.361Z,20.64
2017-07-09T08:26:03.312Z,20.59
2017-07-09T08:27:13.598Z,20.59
2017-07-09T08:28:23.896Z,20.66
2017-07-09T08:29:33.861Z,20.78
2017-07-09T08:30:44.451Z,21
2017-07-09T08:31:54.721Z,21.03
2017-07-09T08:33:05.015Z,21.03
2017-07-09T08:34:15.289Z,21.03
2017-07-09T08:35:25.573Z,20.86
2017-07-09T08:36:36.097Z,20.88
2017-07-09T08:37:45.740Z,20.89
2017-07-09T08:38:56.015Z,21.04
2017-07-09T08:40:06.350Z,21.13
2017-07-09T08:41:16.618Z,21.08
2017-07-09T08:42:27.199Z,21.08
2017-07-09T08:43:37.491Z,20.95
2017-07-09T08:44:47.453Z,21.04
2017-07-09T08:45:57.425Z,20.98
2017-07-09T08:47:07.377Z,21.07
2017-07-09T08:48:17.950Z,20.95
2017-07-09T08:49:28.228Z,21.11
2017-07-09T08:50:38.493Z,21.08
2017-07-09T08:51:48.147Z,21.04
2017-07-09T08:52:58.440Z,20.96
2017-07-09T08:54:09.020Z,20.93
2017-07-09T08:55:19.310Z,20.96
2017-07-09T08:56:29.569Z,21.04
2017-07-09T08:57:39.854Z,20.92
2017-07-09T08:58:49.826Z,20.86
2017-07-09T09:00:00.047Z,20.74
2017-07-09T09:01:10.022Z,20.6
2017-07-09T09:02:20.321Z,20.48
2017-07-09T09:03:30.275Z,20.49
2017-07-09T09:04:40.574Z,20.46
2017-07-09T09:05:51.102Z,20.4
2017-07-09T09:07:01.124Z,20.34
2017-07-09T09:08:11.404Z,20.33
2017-07-09T09:09:21.671Z,20.32
2017-07-09T09:10:31.952Z,20.3
2017-07-09T09:11:42.460Z,20.33
2017-07-09T09:12:52.740Z,20.19
2017-07-09T09:14:03.010Z,20.19
2017-07-09T09:15:13.294Z,20.19
2017-07-09T09:16:23.248Z,20.14
2017-07-09T09:17:33.820Z,20.12
2017-07-09T09:18:44.111Z,20.04
2017-07-09T09:19:54.079Z,20.04
2017-07-09T09:21:04.028Z,19.97
2017-07-09T09:22:13.365Z,20
2017-07-09T09:23:23.565Z,20.1
2017-07-09T09:24:32.905Z,20.1
2017-07-09T09:25:42.856Z,20.15
2017-07-09T09:26:52.817Z,20.12
2017-07-09T09:28:02.462Z,20.18
2017-07-09T09:29:13.044Z,20.19
2017-07-09T09:30:23.310Z,20.21
2017-07-09T09:31:33.577Z,20.14
2017-07-09T09:32:43.555Z,20.15
2017-07-09T09:33:53.198Z,20.1
2017-07-09T09:35:03.717Z,19.93
2017-07-09T09:36:13.990Z,19.94
2017-07-09T09:37:23.956Z,19.85
2017-07-09T09:38:33.917Z,19.71
2017-07-09T09:39:43.896Z,19.47
2017-07-09T09:40:54.430Z,19.44
2017-07-09T09:42:04.079Z,19.45
2017-07-09T09:43:14.358Z,19.53
2017-07-09T09:44:24.375Z,19.6
2017-07-09T09:45:34.639Z,19.52
2017-07-09T09:46:44.590Z,19.67
2017-07-09T09:47:54.539Z,19.72
2017-07-09T09:49:04.811Z,19.66
2017-07-09T09:50:14.764Z,19.64
2017-07-09T09:51:25.045Z,19.66
2017-07-09T09:52:35.262Z,19.66
2017-07-09T09:53:44.911Z,19.66
2017-07-09T09:54:54.883Z,19.64
2017-07-09T09:56:05.149Z,19.64
2017-07-09T09:57:15.437Z,19.64
2017-07-09T09:58:25.977Z,19.67
2017-07-09T09:59:35.614Z,19.67
2017-07-09T10:00:45.580Z,19.71
2017-07-09T10:01:55.537Z,19.71
2017-07-09T10:03:05.824Z,19.7
2017-07-09T10:04:16.370Z,19.85
2017-07-09T10:05:26.658Z,19.82
2017-07-09T10:06:36.953Z,19.87
2017-07-09T10:07:46.597Z,19.85
2017-07-09T10:08:56.881Z,19.89
2017-07-09T10:10:07.402Z,19.85
2017-07-09T10:11:17.361Z,19.81
2017-07-09T10:12:27.637Z,19.85
2017-07-09T10:13:37.594Z,19.94
2017-07-09T10:14:47.568Z,20.12
2017-07-09T10:15:57.781Z,20.24
2017-07-09T10:17:08.127Z,20.34
2017-07-09T10:18:18.416Z,20.59
2017-07-09T10:19:28.686Z,20.63
2017-07-09T10:20:38.963Z,20.77
2017-07-09T10:21:49.222Z,20.78
2017-07-09T10:22:59.529Z,20.85
2017-07-09T10:24:09.797Z,20.93
2017-07-09T10:25:19.756Z,20.89
2017-07-09T10:26:29.707Z,21.13
2017-07-09T10:27:40.225Z,21.28
2017-07-09T10:28:50.199Z,21.43
2017-07-09T10:30:00.145Z,21.43
2017-07-09T10:31:10.140Z,21.48
2017-07-09T10:32:20.109Z,21.69
2017-07-09T10:33:30.630Z,21.92
2017-07-09T10:34:40.598Z,22.14
2017-07-09T10:35:50.869Z,22.34
2017-07-09T10:37:01.174Z,22.46
2017-07-09T10:38:11.448Z,22.67
2017-07-09T10:39:22.019Z,23.02
2017-07-09T10:40:31.988Z,23.13
2017-07-09T10:41:42.266Z,23.23
2017-07-09T10:42:52.245Z,23.26
2017-07-09T10:44:02.531Z,23.28
2017-07-09T10:45:13.071Z,23.13
2017-07-09T10:46:23.346Z,23.13
2017-07-09T10:47:33.295Z,23.11
2017-07-09T10:48:43.257Z,22.98
2017-07-09T10:49:53.541Z,23.06
2017-07-09T10:51:04.139Z,22.95
2017-07-09T10:52:14.431Z,22.84
2017-07-09T10:53:24.383Z,22.89
2017-07-09T10:54:34.659Z,22.84
2017-07-09T10:55:44.934Z,22.92
2017-07-09T10:56:55.525Z,22.71
2017-07-09T10:58:05.480Z,22.63
2017-07-09T10:59:15.750Z,22.52
2017-07-09T11:00:26.043Z,22.44
2017-07-09T11:01:36.012Z,22.55
2017-07-09T11:02:46.537Z,22.81
2017-07-09T11:03:56.805Z,22.95
2017-07-09T11:05:06.783Z,22.98
2017-07-09T11:06:17.066Z,23.21
2017-07-09T11:07:27.342Z,23.49
2017-07-09T11:08:37.870Z,23.76
2017-07-09T11:09:47.824Z,23.95
2017-07-09T11:10:58.103Z,24.21
2017-07-09T11:12:08.388Z,24.5
2017-07-09T11:13:18.673Z,24.82
2017-07-09T11:14:29.208Z,25.14
2017-07-09T11:15:39.166Z,25.58
2017-07-09T11:16:49.463Z,25.89
2017-07-09T11:17:59.751Z,26.31
2017-07-09T11:19:10.022Z,26.67
2017-07-09T11:20:20.555Z,26.91
2017-07-09T11:21:30.836Z,27.08
2017-07-09T11:22:41.105Z,27.29
2017-07-09T11:23:51.370Z,27.52
2017-07-09T11:25:00.999Z,27.44
2017-07-09T11:26:11.536Z,27.03
2017-07-09T11:27:21.844Z,26.55
2017-07-09T11:28:31.803Z,26.07
2017-07-09T11:29:41.753Z,26.06
2017-07-09T11:30:51.706Z,26.33
2017-07-09T11:32:02.237Z,26.39
2017-07-09T11:33:12.210Z,26.46
2017-07-09T11:34:22.495Z,26.76
2017-07-09T11:35:32.781Z,27.25
2017-07-09T11:36:42.747Z,27.73
2017-07-09T11:37:53.331Z,28.18
2017-07-09T11:39:03.856Z,28.4
2017-07-09T11:40:13.818Z,28.68
2017-07-09T11:41:24.131Z,28.47
2017-07-09T11:42:34.427Z,28.27
2017-07-09T11:43:44.645Z,28.3
2017-07-09T11:44:54.938Z,28.09
2017-07-09T11:46:05.226Z,27.76
2017-07-09T11:47:15.525Z,27.58
2017-07-09T11:48:25.801Z,28.16
2017-07-09T11:49:36.383Z,28.75
2017-07-09T11:50:46.364Z,29.4
2017-07-09T11:51:56.687Z,29.42
2017-07-09T11:53:06.963Z,29.39
2017-07-09T11:54:17.246Z,29.64
2017-07-09T11:55:27.798Z,30.11
2017-07-09T11:56:38.080Z,30.38
2017-07-09T11:57:48.046Z,30.74
2017-07-09T11:58:57.999Z,31
2017-07-09T12:00:07.967Z,31.28
2017-07-09T12:01:18.190Z,31.42
2017-07-09T12:02:28.477Z,31.64
2017-07-09T12:03:38.768Z,31.45
2017-07-09T12:04:48.420Z,30.55
2017-07-09T12:05:58.716Z,30.51
2017-07-09T12:07:08.605Z,30.46
2017-07-09T12:08:18.582Z,30.76
2017-07-09T12:09:28.858Z,30.99
2017-07-09T12:10:39.134Z,31.29
2017-07-09T12:11:48.792Z,31.36
2017-07-09T12:12:59.388Z,31.42
2017-07-09T12:14:09.684Z,31
2017-07-09T12:15:19.341Z,30.05
2017-07-09T12:16:29.621Z,29.43
2017-07-09T12:17:39.590Z,29.43
2017-07-09T12:18:50.122Z,29.92
2017-07-09T12:20:00.405Z,29.8
2017-07-09T12:21:10.707Z,30.26
2017-07-09T12:22:20.680Z,29.9
2017-07-09T12:23:30.951Z,29.8
2017-07-09T12:24:41.483Z,29.47
2017-07-09T12:25:51.779Z,28.86
2017-07-09T12:27:02.064Z,28.34
2017-07-09T12:28:12.371Z,27.71
2017-07-09T12:29:22.660Z,27.53
2017-07-09T12:30:33.226Z,27.76
2017-07-09T12:31:43.512Z,27.71
2017-07-09T12:32:53.493Z,27.68
2017-07-09T12:34:03.791Z,27.9
2017-07-09T12:35:13.759Z,28.19
2017-07-09T12:36:24.293Z,28.57
2017-07-09T12:37:34.656Z,29.13
2017-07-09T12:38:44.955Z,29.9
2017-07-09T12:39:54.917Z,30.18
2017-07-09T12:41:05.225Z,29.86
2017-07-09T12:42:15.781Z,29.44
2017-07-09T12:43:26.063Z,29.55
2017-07-09T12:44:36.403Z,30.13
2017-07-09T12:45:46.704Z,30.69
2017-07-09T12:46:56.682Z,30.74
2017-07-09T12:48:07.227Z,31.15
2017-07-09T12:49:17.198Z,31.2
2017-07-09T12:50:27.480Z,30.96
2017-07-09T12:51:37.444Z,30.54
2017-07-09T12:52:47.721Z,30.93
2017-07-09T12:53:58.261Z,30.86
2017-07-09T12:55:08.539Z,31.32
2017-07-09T12:56:18.820Z,31.64
2017-07-09T12:57:29.109Z,32.24
2017-07-09T12:58:39.394Z,32.72
2017-07-09T12:59:49.947Z,33.35
2017-07-09T13:01:00.250Z,33.89
2017-07-09T13:02:10.531Z,34.46
2017-07-09T13:03:20.835Z,34.81
2017-07-09T13:04:31.112Z,35.25
2017-07-09T13:05:41.332Z,35.72
2017-07-09T13:06:51.675Z,35.93
2017-07-09T13:08:01.941Z,35.53
2017-07-09T13:09:11.904Z,33.89
2017-07-09T13:10:22.187Z,32.73
2017-07-09T13:11:32.725Z,32.73
2017-07-09T13:12:42.755Z,32.45
2017-07-09T13:13:53.043Z,32.64
2017-07-09T13:15:03.013Z,33.08
2017-07-09T13:16:13.305Z,33.6
2017-07-09T13:17:23.870Z,33.4
2017-07-09T13:18:34.150Z,33.28
2017-07-09T13:19:44.118Z,33
2017-07-09T13:20:54.394Z,32.42
2017-07-09T13:22:04.656Z,31.97
2017-07-09T13:23:14.859Z,31.87
2017-07-09T13:24:25.128Z,31.63
2017-07-09T13:25:35.409Z,31.63
2017-07-09T13:26:45.710Z,31.81
2017-07-09T13:27:55.997Z,32.19
2017-07-09T13:29:06.235Z,32.82
2017-07-09T13:30:16.531Z,33.31
2017-07-09T13:31:26.824Z,33.82
2017-07-09T13:32:36.790Z,34.37
2017-07-09T13:33:47.090Z,34.13
2017-07-09T13:34:57.654Z,34.38
2017-07-09T13:36:07.932Z,34.5
2017-07-09T13:37:18.226Z,34.73
2017-07-09T13:38:28.515Z,34.6
2017-07-09T13:39:38.790Z,34.63
2017-07-09T13:40:49.324Z,34.96
2017-07-09T13:41:59.618Z,35.32
2017-07-09T13:43:09.902Z,35.54
2017-07-09T13:44:20.189Z,35.74
2017-07-09T13:45:30.486Z,36.01
2017-07-09T13:46:40.708Z,36.43
2017-07-09T13:47:50.672Z,36.72
2017-07-09T13:49:00.947Z,37.04
2017-07-09T13:50:11.241Z,37.25
2017-07-09T13:51:21.227Z,37.18
2017-07-09T13:52:31.487Z,37.28
2017-07-09T13:53:41.776Z,37.21
2017-07-09T13:54:51.746Z,37.36
2017-07-09T13:56:02.054Z,37.64
2017-07-09T13:57:12.022Z,37.83
2017-07-09T13:58:22.562Z,37.95
2017-07-09T13:59:32.882Z,37.85
2017-07-09T14:00:43.167Z,37.86
2017-07-09T14:01:53.454Z,37.29
2017-07-09T14:03:03.758Z,36.22
2017-07-09T14:04:14.308Z,34.75
2017-07-09T14:05:24.590Z,34.46
2017-07-09T14:06:34.557Z,33.53
2017-07-09T14:07:44.849Z,33.09
2017-07-09T14:08:55.146Z,33.12
2017-07-09T14:10:05.729Z,33.47
2017-07-09T14:11:16.008Z,33.89
2017-07-09T14:12:26.297Z,34.47
2017-07-09T14:13:36.597Z,34.71
2017-07-09T14:14:46.884Z,35.03
2017-07-09T14:15:57.131Z,35.22
2017-07-09T14:17:07.104Z,35.45
2017-07-09T14:18:17.376Z,35.68
2017-07-09T14:19:27.656Z,35.79
2017-07-09T14:20:37.943Z,35.97
2017-07-09T14:21:47.861Z,36.33
2017-07-09T14:22:57.847Z,36.53
2017-07-09T14:24:08.137Z,35.75
2017-07-09T14:25:18.439Z,35.74
2017-07-09T14:26:28.717Z,35.66
2017-07-09T14:27:39.227Z,35.57
2017-07-09T14:28:49.526Z,35.6
2017-07-09T14:29:59.848Z,35.66
2017-07-09T14:31:09.828Z,35.72
2017-07-09T14:32:20.123Z,35.35
2017-07-09T14:33:30.340Z,34.21
2017-07-09T14:34:40.014Z,33.54
2017-07-09T14:35:50.304Z,33.35
2017-07-09T14:37:00.275Z,33.5
2017-07-09T14:38:10.556Z,33.17
2017-07-09T14:39:20.469Z,33.45
2017-07-09T14:40:30.738Z,33.77
2017-07-09T14:41:40.718Z,33.94
2017-07-09T14:42:51.021Z,33.75
2017-07-09T14:44:00.680Z,33.7
2017-07-09T14:45:10.645Z,33.45
2017-07-09T14:46:20.626Z,33.58
2017-07-09T14:47:30.907Z,33.7
2017-07-09T14:48:41.196Z,33.09
2017-07-09T14:49:50.850Z,32.94
2017-07-09T14:51:01.376Z,32.81
2017-07-09T14:52:11.660Z,32.79
2017-07-09T14:53:21.932Z,33
2017-07-09T14:54:32.217Z,33.1
2017-07-09T14:55:42.520Z,32.98
2017-07-09T14:56:53.080Z,32.56
2017-07-09T14:58:03.053Z,32.22
2017-07-09T14:59:13.342Z,32.41
2017-07-09T15:00:22.984Z,32.61
2017-07-09T15:01:33.257Z,32.6
2017-07-09T15:02:43.557Z,32.49
2017-07-09T15:03:53.527Z,32.82
2017-07-09T15:05:03.509Z,33.15
2017-07-09T15:06:13.793Z,33.69
2017-07-09T15:07:24.085Z,34.19
2017-07-09T15:08:34.033Z,34.5